Airfield :
LOGIN :

Register | Disclaimer

   EN    FR    IT 

 










Legend :    VFR   Marginal VFR   IFR   Intensive IFR   Very Intensive IFR
Visi :
Ceiling :
>= 8 km
>= 3000ft
5 to 8 km
1000 to 3000 ft
1500m to 5 km
500 to 1000 ft
800 to 1500m
200 to 500 ft
< 800m
< 200 ft
Symbols :   Thunderstorms  Fog  Heavy snow  Heavy precipitations  Wind > 20 kt
SIGMETs :     Misc.  Thunderstorms  Icing  Turbulence  Mountain Waves  Volcanic Ashes






- Airport Elevation : 100 ft


EBDT - Schaffen

CURRENT METAR :
  • 020655Z AUTO 17008KT 9999 FEW220/// 05/03 Q1000 BLU

EXPIRED METARs :
  • 020625Z AUTO 17006KT 9999 BKN220/// 05/03 Q1000 BLU
  • 020555Z AUTO 17007KT 9999 FEW240/// 05/03 Q1000 BLU
  • 020525Z AUTO 17008KT 9999 FEW025/// 05/03 Q0999 BLU
  • 020522Z AUTO 17007KT 9999 SCT026/// 05/03 Q0999 BLU
  • 020455Z AUTO 17008KT 9999 BKN022/// 06/03 Q0999 WHT
  • 020425Z AUTO 17008KT 9999 BKN023/// BKN031/// 06/03 Q0999 WHT
  • 012055Z AUTO 16013KT 9999 SCT046/// BKN100/// BKN130/// 09/03 Q0998 BLU
  • 020355Z AUTO 18008KT 9999 BKN022/// 06/03 Q0999 WHT
  • 020325Z AUTO 18008KT 9999 SCT028/// BKN100/// 06/03 Q0999 BLU
  • 020255Z AUTO 19010KT 9999 SCT026/// BKN095/// 06/03 Q0999 BLU
  • 020225Z AUTO 19009KT 9999 FEW030/// SCT043/// BKN096/// 06/04 Q0999 BLU

Expired Forecast.



MET'MAP, your aeronautical weather chart ! - Copyright ORBIFLY December 2007 - Disclaimer

ORBIFLY MET'MAP TEAM :

Programming & Development : Alexandra Zaïnal
Original concept : Baudouin d'Aumeries
Technical & hardware support : Manuel Goepfert
Assistance : Marc-Olivier Méhu




SOURCES & CREDITS :

   NOAA